createdAt,value
2018-06-28T00:00:42.003Z,98.40
2018-06-28T00:03:10.961Z,97.90
2018-06-28T00:05:45.086Z,98.10
2018-06-28T00:10:47.856Z,98.20
2018-06-28T00:13:17.058Z,98.10
2018-06-28T00:15:49.033Z,98.30
2018-06-28T00:18:18.753Z,98.30
2018-06-28T00:20:52.161Z,98.10
2018-06-28T00:23:21.125Z,98.10
2018-06-28T00:25:54.575Z,98.10
2018-06-28T00:28:23.412Z,97.90
2018-06-28T00:33:24.864Z,98.20
2018-06-28T00:35:59.583Z,98.20
2018-06-28T00:38:28.928Z,98.40
2018-06-28T00:41:03.025Z,98.40
2018-06-28T00:43:32.690Z,98.50
2018-06-28T00:46:05.777Z,98.50
2018-06-28T00:48:35.091Z,98.40
2018-06-28T00:51:08.715Z,98.80
2018-06-28T00:53:37.394Z,99.00
2018-06-28T00:56:12.207Z,99.00
2018-06-28T00:58:42.973Z,98.90
2018-06-28T01:01:15.093Z,98.90
2018-06-28T01:03:46.232Z,98.90
2018-06-28T01:06:17.281Z,99.20
2018-06-28T01:08:46.501Z,99.20
2018-06-28T01:11:19.989Z,99.30
2018-06-28T01:13:48.749Z,99.40
2018-06-28T01:16:21.438Z,99.80
2018-06-28T01:18:50.191Z,99.40
2018-06-28T01:21:24.173Z,99.60
2018-06-28T01:23:53.074Z,99.70
2018-06-28T01:26:25.384Z,99.70
2018-06-28T01:28:54.249Z,99.80
2018-06-28T01:31:28.261Z,99.80
2018-06-28T01:33:57.395Z,99.90
2018-06-28T01:36:30.597Z,99.90
2018-06-28T01:38:59.372Z,99.90
2018-06-28T01:43:43.377Z,99.90
2018-06-28T01:46:12.169Z,99.90
2018-06-28T01:48:41.390Z,99.90
2018-06-28T01:51:10.393Z,99.90
2018-06-28T01:53:39.442Z,99.90
2018-06-28T01:56:08.729Z,99.90
2018-06-28T01:58:40.914Z,99.90
2018-06-28T02:01:09.899Z,99.90
2018-06-28T02:03:43.356Z,99.90
2018-06-28T02:06:12.053Z,99.90
2018-06-28T02:08:46.240Z,99.90
2018-06-28T02:11:15.493Z,99.90
2018-06-28T02:13:48.564Z,99.90
2018-06-28T02:16:17.392Z,99.90
2018-06-28T02:18:53.547Z,99.90
2018-06-28T02:21:22.262Z,99.90
2018-06-28T02:23:54.407Z,99.90
2018-06-28T02:26:24.061Z,99.90
2018-06-28T02:28:56.987Z,99.90
2018-06-28T02:31:25.689Z,99.90
2018-06-28T02:33:59.605Z,99.90
2018-06-28T02:36:28.504Z,99.90
2018-06-28T02:39:02.539Z,99.90
2018-06-28T02:41:31.348Z,99.90
2018-06-28T02:44:05.128Z,99.90
2018-06-28T02:46:34.140Z,99.90
2018-06-28T02:49:08.124Z,99.90
2018-06-28T02:51:37.212Z,99.90
2018-06-28T02:54:11.104Z,99.90
2018-06-28T02:56:40.080Z,99.90
2018-06-28T02:59:14.518Z,99.90
2018-06-28T03:01:43.627Z,99.90
2018-06-28T03:04:17.526Z,99.90
2018-06-28T03:06:46.258Z,99.90
2018-06-28T03:09:18.874Z,99.90
2018-06-28T03:11:47.954Z,99.90
2018-06-28T03:14:21.366Z,99.90
2018-06-28T03:16:50.152Z,99.90
2018-06-28T03:19:23.539Z,99.90
2018-06-28T03:21:52.310Z,99.90
2018-06-28T03:24:28.808Z,99.90
2018-06-28T03:26:57.729Z,99.90
2018-06-28T03:29:29.273Z,99.90
2018-06-28T03:31:58.518Z,99.90
2018-06-28T03:34:31.215Z,99.90
2018-06-28T03:37:00.031Z,99.90
2018-06-28T03:41:02.645Z,99.90
2018-06-28T03:43:35.291Z,99.90
2018-06-28T03:46:04.121Z,99.90
2018-06-28T03:48:37.756Z,99.90
2018-06-28T03:51:07.803Z,99.90
2018-06-28T03:53:40.937Z,99.90
2018-06-28T03:56:10.000Z,99.90
2018-06-28T03:58:42.489Z,99.90
2018-06-28T04:01:11.257Z,99.90
2018-06-28T04:03:44.834Z,99.90
2018-06-28T04:06:13.666Z,99.90
2018-06-28T04:11:15.109Z,99.90
2018-06-28T04:13:49.197Z,99.90
2018-06-28T04:16:18.027Z,99.90
2018-06-28T04:18:52.925Z,99.90
2018-06-28T04:21:21.727Z,99.90
2018-06-28T04:23:55.067Z,99.90
2018-06-28T04:26:24.466Z,99.90
2018-06-28T04:28:57.917Z,99.90
2018-06-28T04:31:26.739Z,99.90
2018-06-28T04:34:00.986Z,99.90
2018-06-28T04:36:29.791Z,99.90
2018-06-28T04:39:10.898Z,99.90
2018-06-28T04:41:40.013Z,99.90
2018-06-28T04:44:08.860Z,99.90
2018-06-28T04:46:37.649Z,99.90
2018-06-28T04:49:08.931Z,99.90
2018-06-28T04:51:37.681Z,99.90
2018-06-28T04:54:12.776Z,99.90
2018-06-28T04:56:41.876Z,99.90
2018-06-28T04:59:14.614Z,99.90
2018-06-28T05:01:43.409Z,99.90
2018-06-28T05:04:19.693Z,99.90
2018-06-28T05:06:49.033Z,99.90
2018-06-28T05:09:19.258Z,99.90
2018-06-28T05:11:48.422Z,99.90
2018-06-28T05:14:21.259Z,99.90
2018-06-28T05:16:50.059Z,99.90
2018-06-28T05:21:51.389Z,99.90
2018-06-28T05:24:26.711Z,99.90
2018-06-28T05:26:55.830Z,99.90
2018-06-28T05:29:28.868Z,99.90
2018-06-28T05:31:57.633Z,99.90
2018-06-28T05:34:31.327Z,99.90
2018-06-28T05:37:01.710Z,99.90
2018-06-28T05:39:33.615Z,99.90
2018-06-28T05:42:03.634Z,99.90
2018-06-28T05:47:04.661Z,99.90
2018-06-28T05:49:39.303Z,99.90
2018-06-28T05:52:08.256Z,99.90
2018-06-28T05:54:41.574Z,99.90
2018-06-28T05:57:10.685Z,99.90
2018-06-28T05:59:43.276Z,99.90
2018-06-28T06:02:12.461Z,99.90
2018-06-28T06:04:46.559Z,99.90
2018-06-28T06:07:15.683Z,99.90
2018-06-28T06:12:16.172Z,99.50
2018-06-28T06:14:50.622Z,99.30
2018-06-28T06:17:19.752Z,98.60
2018-06-28T06:19:53.369Z,99.80
2018-06-28T06:22:22.755Z,99.90
2018-06-28T06:24:55.594Z,99.90
2018-06-28T06:27:24.499Z,98.50
2018-06-28T06:29:59.128Z,99.00
2018-06-28T06:32:28.276Z,99.30
2018-06-28T06:35:01.245Z,98.80
2018-06-28T06:37:30.136Z,99.30
2018-06-28T06:40:05.413Z,99.70
2018-06-28T06:42:35.627Z,99.50
2018-06-28T06:45:07.884Z,98.50
2018-06-28T06:47:41.396Z,99.10
2018-06-28T06:50:15.181Z,98.80
2018-06-28T06:52:44.316Z,97.90
2018-06-28T06:55:13.977Z,97.30
2018-06-28T06:57:43.634Z,97.40
2018-06-28T07:00:18.126Z,97.10
2018-06-28T07:02:49.765Z,96.60
2018-06-28T07:05:18.580Z,97.20
2018-06-28T07:07:47.389Z,96.90
2018-06-28T07:10:20.735Z,96.80
2018-06-28T07:12:53.241Z,96.80
2018-06-28T07:15:27.451Z,96.80
2018-06-28T07:18:00.284Z,96.50
2018-06-28T07:20:32.704Z,96.10
2018-06-28T07:23:07.602Z,96.00
2018-06-28T07:25:38.910Z,95.90
2018-06-28T07:28:07.740Z,95.50
2018-06-28T07:30:36.585Z,95.70
2018-06-28T07:33:05.932Z,95.30
2018-06-28T07:35:35.188Z,95.30
2018-06-28T07:38:04.355Z,95.50
2018-06-28T07:40:36.294Z,94.80
2018-06-28T07:43:05.597Z,94.40
2018-06-28T07:45:37.365Z,94.20
2018-06-28T07:48:08.178Z,93.70
2018-06-28T07:50:40.652Z,94.30
2018-06-28T07:53:09.500Z,92.90
2018-06-28T07:55:42.170Z,93.00
2018-06-28T07:58:11.157Z,93.70
2018-06-28T08:00:45.348Z,93.80
2018-06-28T08:03:16.392Z,93.20
2018-06-28T08:05:47.243Z,93.50
2018-06-28T08:08:16.109Z,94.20
2018-06-28T08:10:54.438Z,93.70
2018-06-28T08:13:23.894Z,93.20
2018-06-28T08:15:53.314Z,93.50
2018-06-28T08:18:22.500Z,93.70
2018-06-28T08:20:56.492Z,94.10
2018-06-28T08:23:25.245Z,94.50
2018-06-28T08:25:59.327Z,93.40
2018-06-28T08:28:28.179Z,93.00
2018-06-28T08:31:01.019Z,93.30
2018-06-28T08:33:30.231Z,94.50
2018-06-28T08:36:03.182Z,91.50
2018-06-28T08:38:32.185Z,91.60
2018-06-28T08:41:06.593Z,92.20
2018-06-28T08:43:36.609Z,92.10
2018-06-28T08:46:09.787Z,93.20
2018-06-28T08:48:43.979Z,92.30
2018-06-28T08:51:13.074Z,91.80
2018-06-28T08:53:45.652Z,91.00
2018-06-28T08:56:15.683Z,92.40
2018-06-28T08:58:45.206Z,91.90
2018-06-28T09:01:17.577Z,91.70
2018-06-28T09:03:46.413Z,91.80
2018-06-28T09:08:48.174Z,91.20
2018-06-28T09:11:25.253Z,90.70
2018-06-28T09:13:56.432Z,89.80
2018-06-28T09:16:26.055Z,90.70
2018-06-28T09:18:58.341Z,91.00
2018-06-28T09:21:28.414Z,90.60
2018-06-28T09:23:58.122Z,90.20
2018-06-28T09:29:01.591Z,89.10
2018-06-28T09:31:32.305Z,86.70
2018-06-28T09:34:01.936Z,81.10
2018-06-28T09:36:36.336Z,80.70
2018-06-28T09:39:08.318Z,83.90
2018-06-28T09:41:37.733Z,79.10
2018-06-28T09:44:06.694Z,78.60
2018-06-28T09:46:38.587Z,74.40
2018-06-28T09:49:07.972Z,74.30
2018-06-28T09:51:41.270Z,76.30
2018-06-28T09:54:10.562Z,75.30
2018-06-28T09:56:44.607Z,71.30
2018-06-28T09:59:13.427Z,73.20
2018-06-28T10:01:46.749Z,72.30
2018-06-28T10:04:17.135Z,71.60
2018-06-28T10:06:49.066Z,70.70
2018-06-28T10:09:18.109Z,65.60
2018-06-28T10:11:51.258Z,63.70
2018-06-28T10:14:20.308Z,62.10
2018-06-28T10:16:54.276Z,66.90
2018-06-28T10:19:23.720Z,72.10
2018-06-28T10:21:57.613Z,61.70
2018-06-28T10:24:26.771Z,60.00
2018-06-28T10:26:59.653Z,60.90
2018-06-28T10:29:30.269Z,60.50
2018-06-28T10:32:03.218Z,56.80
2018-06-28T10:34:33.165Z,62.90
2018-06-28T10:37:04.695Z,57.50
2018-06-28T10:39:36.186Z,64.30
2018-06-28T10:42:08.471Z,67.30
2018-06-28T10:44:37.813Z,67.60
2018-06-28T10:47:10.682Z,61.20
2018-06-28T10:49:42.108Z,61.40
2018-06-28T10:54:47.737Z,58.70
2018-06-28T10:57:18.896Z,57.00
2018-06-28T10:59:52.826Z,61.00
2018-06-28T11:02:23.949Z,62.90
2018-06-28T11:04:54.642Z,62.90
2018-06-28T11:07:24.497Z,61.60
2018-06-28T11:09:54.188Z,61.00
2018-06-28T11:12:31.623Z,59.20
2018-06-28T11:15:01.661Z,62.40
2018-06-28T11:17:35.344Z,60.60
2018-06-28T11:20:05.245Z,64.20
2018-06-28T11:22:34.602Z,66.40
2018-06-28T11:25:07.661Z,63.10
2018-06-28T11:27:37.675Z,56.60
2018-06-28T11:30:10.604Z,55.00
2018-06-28T11:32:41.689Z,55.90
2018-06-28T11:35:11.709Z,55.00
2018-06-28T11:37:41.165Z,56.00
2018-06-28T11:40:10.549Z,59.60
2018-06-28T11:42:40.340Z,61.90
2018-06-28T11:45:10.361Z,56.10
2018-06-28T11:47:41.075Z,59.50
2018-06-28T11:50:13.113Z,54.50
2018-06-28T11:52:42.292Z,57.50
2018-06-28T11:57:44.865Z,53.60
2018-06-28T12:00:14.198Z,55.50
2018-06-28T12:02:51.882Z,52.70
2018-06-28T12:05:21.350Z,53.60
2018-06-28T12:07:52.194Z,50.40
2018-06-28T12:10:21.749Z,50.00
2018-06-28T12:12:55.620Z,57.40
2018-06-28T12:15:25.629Z,50.30
2018-06-28T12:17:55.715Z,54.20
2018-06-28T12:20:25.499Z,57.10
2018-06-28T12:23:02.642Z,57.10
2018-06-28T12:25:32.635Z,54.90
2018-06-28T12:28:02.773Z,50.80
2018-06-28T12:30:33.227Z,49.70
2018-06-28T12:33:04.231Z,56.30
2018-06-28T12:35:33.528Z,58.50
2018-06-28T12:38:11.073Z,53.70
2018-06-28T12:40:40.270Z,60.20
2018-06-28T12:43:09.556Z,55.70
2018-06-28T12:45:38.548Z,66.70
2018-06-28T12:48:18.194Z,63.70
2018-06-28T12:50:48.699Z,57.40
2018-06-28T12:53:20.385Z,55.50
2018-06-28T12:56:29.689Z,57.20
2018-06-28T12:58:59.981Z,62.20
2018-06-28T13:01:30.664Z,61.30
2018-06-28T13:03:59.691Z,53.40
2018-06-28T13:06:29.242Z,53.10
2018-06-28T13:11:28.845Z,56.70
2018-06-28T13:13:58.201Z,56.20
2018-06-28T13:16:28.096Z,57.00
2018-06-28T13:18:57.766Z,59.90
2018-06-28T13:21:28.677Z,56.50
2018-06-28T13:23:59.242Z,60.70
2018-06-28T13:26:30.733Z,59.20
2018-06-28T13:29:00.307Z,59.80
2018-06-28T13:31:32.186Z,60.30
2018-06-28T13:34:01.361Z,55.50
2018-06-28T13:36:40.208Z,58.40
2018-06-28T13:39:09.418Z,53.40
2018-06-28T13:41:38.932Z,51.80
2018-06-28T13:44:08.139Z,51.60
2018-06-28T13:46:40.334Z,59.20
2018-06-28T13:49:14.005Z,58.10
2018-06-28T13:51:44.182Z,54.20
2018-06-28T13:54:13.170Z,52.60
2018-06-28T13:56:47.413Z,57.70
2018-06-28T13:59:16.932Z,54.00
2018-06-28T14:01:48.729Z,52.80
2018-06-28T14:04:17.714Z,53.20
2018-06-28T14:07:02.190Z,54.00
2018-06-28T14:09:34.220Z,52.00
2018-06-28T14:12:05.286Z,51.70
2018-06-28T14:14:34.054Z,51.10
2018-06-28T14:17:03.527Z,52.50
2018-06-28T14:19:33.440Z,53.80
2018-06-28T14:22:04.316Z,55.20
2018-06-28T14:24:33.589Z,50.30
2018-06-28T14:27:04.173Z,49.80
2018-06-28T14:29:34.689Z,57.40
2018-06-28T14:32:04.684Z,52.40
2018-06-28T14:34:35.672Z,52.10
2018-06-28T14:37:07.696Z,50.10
2018-06-28T14:39:36.740Z,54.50
2018-06-28T14:42:12.274Z,52.10
2018-06-28T14:44:42.189Z,50.90
2018-06-28T14:47:15.290Z,54.00
2018-06-28T14:49:44.174Z,53.30
2018-06-28T14:52:15.783Z,53.80
2018-06-28T14:54:45.263Z,54.20
2018-06-28T14:57:19.181Z,54.20
2018-06-28T14:59:49.337Z,51.40
2018-06-28T15:04:50.668Z,50.50
2018-06-28T15:07:22.601Z,49.90
2018-06-28T15:09:52.746Z,53.50
2018-06-28T15:12:25.477Z,50.80
2018-06-28T15:14:57.112Z,50.60
2018-06-28T15:19:55.425Z,50.70
2018-06-28T15:22:32.604Z,51.60
2018-06-28T15:27:35.051Z,52.40
2018-06-28T15:30:04.329Z,49.40
2018-06-28T15:32:34.223Z,51.20
2018-06-28T15:35:04.313Z,52.20
2018-06-28T15:37:35.819Z,51.60
2018-06-28T15:40:05.484Z,51.70
2018-06-28T15:45:07.801Z,48.40
2018-06-28T15:47:40.449Z,46.80
2018-06-28T15:50:10.537Z,47.40
2018-06-28T15:52:44.750Z,49.90
2018-06-28T15:55:14.139Z,48.80
2018-06-28T15:57:46.256Z,49.80
2018-06-28T16:00:23.179Z,52.60
2018-06-28T16:02:52.695Z,51.00
2018-06-28T16:05:24.418Z,49.90
2018-06-28T16:07:53.698Z,51.50
2018-06-28T16:10:22.821Z,51.90
2018-06-28T16:12:54.484Z,53.60
2018-06-28T16:15:24.374Z,51.80
2018-06-28T16:17:56.973Z,54.20
2018-06-28T16:20:27.196Z,55.30
2018-06-28T16:22:59.948Z,54.40
2018-06-28T16:25:30.434Z,53.20
2018-06-28T16:28:03.196Z,57.00
2018-06-28T16:30:32.270Z,55.10
2018-06-28T16:33:05.147Z,55.90
2018-06-28T16:35:36.498Z,55.10
2018-06-28T16:38:08.415Z,55.70
2018-06-28T16:40:37.242Z,56.70
2018-06-28T16:43:18.614Z,57.10
2018-06-28T16:45:47.488Z,58.40
2018-06-28T16:48:17.509Z,57.80
2018-06-28T16:50:47.473Z,57.70
2018-06-28T16:53:17.287Z,56.90
2018-06-28T16:55:52.687Z,57.90
2018-06-28T16:58:22.393Z,59.50
2018-06-28T17:00:52.698Z,56.80
2018-06-28T17:03:21.700Z,56.80
2018-06-28T17:05:51.006Z,58.30
2018-06-28T17:08:25.432Z,59.70
2018-06-28T17:10:57.187Z,59.00
2018-06-28T17:13:28.710Z,58.50
2018-06-28T17:15:57.662Z,59.20
2018-06-28T17:18:27.452Z,58.30
2018-06-28T17:20:58.381Z,59.00
2018-06-28T17:23:30.274Z,58.30
2018-06-28T17:26:00.078Z,57.20
2018-06-28T17:28:32.720Z,57.80
2018-06-28T17:31:03.405Z,57.30
2018-06-28T17:33:33.959Z,58.60
2018-06-28T17:36:07.015Z,58.80
2018-06-28T17:38:37.305Z,59.30
2018-06-28T17:41:06.302Z,59.00
2018-06-28T17:43:42.804Z,58.70
2018-06-28T17:46:12.733Z,60.90
2018-06-28T17:48:43.568Z,60.10
2018-06-28T17:51:14.685Z,60.60
2018-06-28T17:53:45.236Z,60.10
2018-06-28T17:56:15.268Z,59.30
2018-06-28T18:01:16.584Z,61.60
2018-06-28T18:03:50.237Z,60.40
2018-06-28T18:06:21.540Z,61.20
2018-06-28T18:08:53.296Z,62.90
2018-06-28T18:11:23.294Z,60.60
2018-06-28T18:13:55.288Z,61.90
2018-06-28T18:16:26.362Z,62.60
2018-06-28T18:18:59.809Z,61.20
2018-06-28T18:21:34.242Z,65.40
2018-06-28T18:24:04.732Z,63.80
2018-06-28T18:26:33.820Z,62.80
2018-06-28T18:29:07.963Z,62.90
2018-06-28T18:31:40.253Z,64.20
2018-06-28T18:34:09.301Z,63.10
2018-06-28T18:36:39.444Z,65.50
2018-06-28T18:39:12.677Z,62.70
2018-06-28T18:41:42.472Z,62.90
2018-06-28T18:46:51.708Z,63.30
2018-06-28T18:49:21.237Z,66.10
2018-06-28T18:51:50.856Z,66.00
2018-06-28T18:54:22.466Z,66.20
2018-06-28T18:59:24.168Z,66.70
2018-06-28T19:01:58.793Z,65.80
2018-06-28T19:04:27.735Z,66.40
2018-06-28T19:06:57.405Z,67.10
2018-06-28T19:09:33.179Z,66.80
2018-06-28T19:12:03.694Z,68.80
2018-06-28T19:14:39.221Z,69.40
2018-06-28T19:17:09.193Z,67.80
2018-06-28T19:19:38.984Z,68.10
2018-06-28T19:22:13.532Z,69.50
2018-06-28T19:24:44.174Z,70.80
2018-06-28T19:27:13.320Z,69.60
2018-06-28T19:29:48.601Z,71.10
2018-06-28T19:35:04.296Z,71.20
2018-06-28T19:37:44.178Z,72.30
2018-06-28T19:40:20.636Z,76.10
2018-06-28T19:42:58.834Z,77.80
2018-06-28T19:45:45.183Z,75.00
2018-06-28T19:48:16.668Z,73.90
2018-06-28T19:50:51.054Z,78.00
2018-06-28T19:53:23.273Z,76.40
2018-06-28T19:55:53.822Z,78.30
2018-06-28T19:58:23.324Z,80.50
2018-06-28T20:00:59.333Z,80.30
2018-06-28T20:03:36.384Z,81.40
2018-06-28T20:06:06.246Z,84.00
2018-06-28T20:08:35.731Z,84.90
2018-06-28T20:11:05.342Z,83.30
2018-06-28T20:13:39.745Z,83.50
2018-06-28T20:16:16.168Z,86.00
2018-06-28T20:18:55.422Z,86.30
2018-06-28T20:21:26.658Z,87.60
2018-06-28T20:24:02.749Z,88.90
2018-06-28T20:26:37.198Z,90.10
2018-06-28T20:29:19.154Z,88.70
2018-06-28T20:32:02.591Z,90.30
2018-06-28T20:34:33.189Z,90.40
2018-06-28T20:37:08.702Z,90.90
2018-06-28T20:39:39.797Z,91.30
2018-06-28T20:42:15.716Z,91.70
2018-06-28T20:44:46.265Z,91.60
2018-06-28T20:47:24.820Z,92.00
2018-06-28T20:49:54.220Z,91.40
2018-06-28T20:52:24.747Z,91.60
2018-06-28T20:54:54.430Z,91.20
2018-06-28T20:57:26.759Z,91.60
2018-06-28T20:59:57.914Z,92.10
2018-06-28T21:02:30.463Z,92.80
2018-06-28T21:05:00.173Z,92.90
2018-06-28T21:07:29.339Z,92.90
2018-06-28T21:10:00.130Z,92.20
2018-06-28T21:15:02.797Z,93.20
2018-06-28T21:17:34.337Z,93.30
2018-06-28T21:20:04.581Z,92.90
2018-06-28T21:22:35.250Z,93.30
2018-06-28T21:25:05.570Z,93.50
2018-06-28T21:27:36.718Z,93.30
2018-06-28T21:30:08.449Z,93.20
2018-06-28T21:32:51.182Z,93.60
2018-06-28T21:35:24.394Z,93.80
2018-06-28T21:37:56.272Z,94.20
2018-06-28T21:40:44.339Z,94.20
2018-06-28T21:43:13.592Z,94.20
2018-06-28T21:45:44.118Z,94.30
2018-06-28T21:48:13.126Z,94.60
2018-06-28T21:50:47.473Z,94.00
2018-06-28T21:53:17.377Z,94.30
2018-06-28T21:55:47.733Z,94.10
2018-06-28T21:58:17.702Z,94.60
2018-06-28T22:00:48.343Z,94.00
2018-06-28T22:03:18.363Z,94.30
2018-06-28T22:05:51.257Z,94.70
2018-06-28T22:08:20.397Z,94.30
2018-06-28T22:10:56.159Z,94.70
2018-06-28T22:13:25.244Z,95.00
2018-06-28T22:15:58.196Z,94.70
2018-06-28T22:21:01.038Z,95.20
2018-06-28T22:23:30.041Z,95.50
2018-06-28T22:26:01.739Z,95.00
2018-06-28T22:28:30.850Z,95.20
2018-06-28T22:31:04.276Z,95.20
2018-06-28T22:33:34.754Z,95.20
2018-06-28T22:36:07.883Z,95.20
2018-06-28T22:38:37.849Z,95.40
2018-06-28T22:41:12.276Z,95.20
2018-06-28T22:43:41.967Z,95.60
2018-06-28T22:46:16.721Z,95.30
2018-06-28T22:55:37.428Z,94.90
2018-06-28T22:58:06.336Z,95.20
2018-06-28T23:00:35.178Z,94.50
2018-06-28T23:03:04.663Z,94.80
2018-06-28T23:05:33.809Z,94.60
2018-06-28T23:08:02.614Z,94.80
2018-06-28T23:10:32.496Z,94.80
2018-06-28T23:13:01.731Z,94.60
2018-06-28T23:15:30.659Z,94.90
2018-06-28T23:17:59.993Z,94.60
2018-06-28T23:20:30.610Z,94.50
2018-06-28T23:22:59.485Z,94.40
2018-06-28T23:25:29.159Z,94.40
2018-06-28T23:27:58.320Z,94.10
2018-06-28T23:30:34.707Z,94.00
2018-06-28T23:33:04.110Z,94.10
2018-06-28T23:35:37.521Z,94.60
2018-06-28T23:38:06.570Z,94.20
2018-06-28T23:40:36.289Z,94.20
2018-06-28T23:43:05.566Z,94.30
2018-06-28T23:45:38.957Z,94.10
2018-06-28T23:48:08.027Z,94.40
2018-06-28T23:50:44.383Z,94.60
2018-06-28T23:53:13.409Z,94.50
2018-06-28T23:55:44.350Z,94.50
2018-06-28T23:58:13.256Z,94.30
